Time;durP1;ratioP1;P1;durP2;ratioP2;P2;SDS_P1;SDS_P2;PMS_P1;PMS_P2;Temp;Humidity;BMP_temperature;BMP_pressure;BME280_temperature;BME280_humidity;BME280_pressure;Samples;Min_cycle;Max_cycle;Signal;HPM_P1;HPM_P2
2021/11/14 00:01:10;;;;;;;137.87;72.27;;;;;;;5.68;67.24;100447.41;4871272;29;97066;-81
2021/11/14 00:04:32;;;;;;;120.47;67.53;;;;;;;5.67;67.18;100445.69;4865509;29;101517;-80
2021/11/14 00:06:58;;;;;;;123.15;68.28;;;;;;;5.67;66.57;100439.59;4890075;28;96698;-81
2021/11/14 00:09:30;;;;;;;126.50;72.00;;;;;;;5.64;66.83;100445.72;4828944;28;96899;-81
2021/11/14 00:11:56;;;;;;;137.73;73.00;;;;;;;5.57;66.29;100446.66;4880347;28;101179;-81
2021/11/14 00:14:22;;;;;;;129.47;75.30;;;;;;;5.50;66.53;100449.34;4886615;28;100293;-81
2021/11/14 00:20:54;;;;;;;129.20;70.20;;;;;;;5.42;66.75;100446.84;4894369;28;96486;-81
2021/11/14 00:23:39;;;;;;;117.40;69.40;;;;;;;5.30;66.89;100446.97;4886480;28;100588;-80
2021/11/14 00:26:05;;;;;;;124.70;67.23;;;;;;;5.33;67.04;100447.81;4886653;28;100523;-81
2021/11/14 00:28:30;;;;;;;130.47;73.20;;;;;;;5.26;67.22;100445.28;4845251;28;96579;-81
2021/11/14 00:31:43;;;;;;;133.65;71.00;;;;;;;5.36;66.36;100452.97;4817161;29;96893;-81
2021/11/14 00:35:04;;;;;;;139.73;72.80;;;;;;;5.35;66.28;100446.06;4855940;28;98020;-81
2021/11/14 00:37:32;;;;;;;139.80;75.00;;;;;;;5.30;66.69;100455.66;4873207;28;100983;-81
2021/11/14 00:39:58;;;;;;;135.77;71.07;;;;;;;5.30;66.68;100453.03;4875023;28;96812;-82
2021/11/14 00:46:21;;;;;;;138.50;72.53;;;;;;;5.29;66.53;100461.72;4879050;28;97106;-81
2021/11/14 00:48:46;;;;;;;139.40;72.80;;;;;;;5.29;66.29;100458.25;4864566;28;101266;-82
2021/11/14 00:51:19;;;;;;;130.97;71.37;;;;;;;5.29;66.24;100463.47;4870453;28;96753;-81
2021/11/14 01:02:52;;;;;;;124.80;66.63;;;;;;;5.02;66.21;100464.59;4879361;29;96534;-81
2021/11/14 01:09:10;;;;;;;124.57;69.10;;;;;;;5.09;66.13;100472.34;4899124;28;96663;-81
2021/11/14 01:12:07;;;;;;;126.97;69.63;;;;;;;5.07;66.09;100460.22;4871809;28;99701;-82
2021/11/14 01:14:33;;;;;;;125.60;68.27;;;;;;;5.09;65.77;100469.75;4906066;28;100061;-81
2021/11/14 01:16:58;;;;;;;121.70;69.03;;;;;;;5.03;65.92;100469.78;4866214;28;96720;-81
2021/11/14 01:35:26;;;;;;;128.80;67.90;;;;;;;4.85;65.28;100482.94;4894891;28;96567;-81
2021/11/14 01:37:59;;;;;;;126.07;67.82;;;;;;;4.85;65.46;100486.41;4860753;28;100120;-81
2021/11/14 01:40:51;;;;;;;123.00;67.53;;;;;;;4.85;65.58;100483.81;4860874;28;98007;-81
2021/11/14 01:43:27;;;;;;;125.47;68.03;;;;;;;4.77;65.49;100483.03;4853664;28;96789;-81
2021/11/14 01:45:52;;;;;;;120.50;67.53;;;;;;;4.74;65.51;100483.91;4859791;28;96774;-82
2021/11/14 01:48:18;;;;;;;120.27;66.17;;;;;;;4.73;65.38;100491.72;4841811;29;100411;-81
2021/11/14 01:50:55;;;;;;;118.97;64.10;;;;;;;4.72;65.45;100497.78;4826529;29;100442;-81
2021/11/14 01:53:47;;;;;;;119.97;65.83;;;;;;;4.74;65.53;100493.41;4845893;29;96695;-81
2021/11/14 01:56:14;;;;;;;116.93;63.83;;;;;;;4.65;65.19;100491.75;4856692;29;96798;-81
2021/11/14 01:58:41;;;;;;;115.80;63.10;;;;;;;4.65;65.30;100499.56;4841297;28;100624;-82
2021/11/14 02:09:25;;;;;;;112.33;62.97;;;;;;;4.54;65.83;100498.78;4889253;28;96608;-81
2021/11/14 02:12:36;;;;;;;116.07;61.97;;;;;;;4.53;65.48;100503.09;4858430;28;101812;-81
2021/11/14 02:15:02;;;;;;;119.30;62.03;;;;;;;4.43;65.83;100506.66;4858512;28;99886;-82
2021/11/14 02:17:30;;;;;;;117.37;66.13;;;;;;;4.24;66.50;100505.00;4857054;28;96675;-82
2021/11/14 02:24:18;;;;;;;118.03;62.60;;;;;;;4.39;66.12;100523.13;4887479;28;96589;-81
2021/11/14 02:27:02;;;;;;;116.13;63.23;;;;;;;4.41;65.64;100516.19;4857808;28;101791;-81
2021/11/14 02:29:28;;;;;;;117.07;62.77;;;;;;;4.45;65.72;100520.50;4858223;28;96666;-81
2021/11/14 02:31:54;;;;;;;113.07;63.17;;;;;;;4.47;65.17;100518.75;4859366;28;96626;-81
2021/11/14 02:38:15;;;;;;;114.67;62.53;;;;;;;4.57;65.38;100524.75;4888614;28;97021;-81
2021/11/14 02:41:21;;;;;;;118.70;67.17;;;;;;;4.52;65.06;100521.31;4840593;29;96749;-82
2021/11/14 02:43:47;;;;;;;120.47;66.57;;;;;;;4.54;65.10;100532.59;4840195;29;96911;-81
2021/11/14 02:46:13;;;;;;;120.83;66.97;;;;;;;4.54;65.30;100530.00;4827602;28;101124;-81
2021/11/14 02:53:37;;;;;;;113.40;62.67;;;;;;;4.53;65.65;100529.09;4887568;28;96559;-81
2021/11/14 03:08:34;;;;;;;116.07;62.87;;;;;;;4.47;65.61;100534.34;4875380;28;96569;-81
2021/11/14 03:10:59;;;;;;;108.17;60.37;;;;;;;4.50;65.55;100538.66;4866838;29;96750;-82
2021/11/14 03:13:25;;;;;;;107.63;60.23;;;;;;;4.48;65.48;100545.59;4838269;29;100686;-81
2021/11/14 03:16:33;;;;;;;113.03;63.20;;;;;;;4.47;65.48;100543.88;4840801;28;97940;-81
2021/11/14 03:19:07;;;;;;;112.57;61.17;;;;;;;4.38;65.63;100549.13;4855527;28;96641;-82
2021/11/14 03:21:32;;;;;;;113.70;62.77;;;;;;;4.27;65.82;100546.56;4841842;29;96662;-81
2021/11/14 03:23:58;;;;;;;111.33;63.43;;;;;;;4.29;65.73;100552.63;4850517;29;100521;-81
2021/11/14 03:26:36;;;;;;;119.17;65.67;;;;;;;4.27;65.80;100554.38;4840229;28;101222;-81
2021/11/14 03:29:04;;;;;;;117.23;64.23;;;;;;;4.22;65.66;100549.22;4854851;28;96610;-81
2021/11/14 03:31:30;;;;;;;118.40;62.00;;;;;;;4.22;65.52;100554.41;4838500;29;96784;-81
2021/11/14 03:33:57;;;;;;;112.50;63.00;;;;;;;4.23;65.65;100557.88;4852592;29;100532;-81
2021/11/14 03:37:16;;;;;;;114.97;65.00;;;;;;;4.13;65.29;100567.44;4837059;29;101148;-81
2021/11/14 03:44:18;;;;;;;118.93;64.67;;;;;;;3.96;65.91;100567.50;4885961;28;96599;-81
2021/11/14 03:50:53;;;;;;;114.00;62.93;;;;;;;3.98;65.47;100565.72;4910409;28;96500;-81
2021/11/14 03:53:20;;;;;;;110.97;63.07;;;;;;;3.98;65.53;100560.53;4857986;28;96713;-81
2021/11/14 03:55:52;;;;;;;111.87;61.37;;;;;;;4.02;65.28;100566.63;4879519;28;96783;-82
2021/11/14 03:58:17;;;;;;;114.20;61.90;;;;;;;3.93;65.49;100566.66;4855696;28;98592;-81
2021/11/14 04:00:47;;;;;;;121.57;62.33;;;;;;;3.93;65.45;100567.50;4872862;28;101322;-82
2021/11/14 04:03:35;;;;;;;110.73;62.20;;;;;;;4.01;65.38;100572.66;4875791;28;96744;-81
2021/11/14 04:06:06;;;;;;;118.90;64.80;;;;;;;4.03;65.37;100573.53;4851593;28;96729;-82
2021/11/14 04:08:32;;;;;;;106.40;60.93;;;;;;;4.02;65.66;100571.81;4871331;28;101776;-82
2021/11/14 04:10:59;;;;;;;109.53;61.43;;;;;;;3.96;65.58;100575.28;4867385;28;101074;-81
2021/11/14 04:17:26;;;;;;;109.73;60.37;;;;;;;3.92;65.35;100576.16;4900778;28;96417;-81
2021/11/14 04:20:12;;;;;;;114.70;60.40;;;;;;;3.91;65.50;100577.03;4885475;28;96548;-81
2021/11/14 04:22:39;;;;;;;110.50;60.53;;;;;;;3.85;65.92;100582.25;4869561;28;97970;-81
2021/11/14 04:25:06;;;;;;;107.27;59.60;;;;;;;3.91;65.88;100581.34;4852126;28;96554;-81
2021/11/14 04:27:57;;;;;;;107.77;58.83;;;;;;;3.87;65.65;100575.31;4850599;28;96786;-81
2021/11/14 04:30:29;;;;;;;106.60;58.23;;;;;;;3.82;65.89;100583.09;4853175;28;99975;-81
2021/11/14 04:32:55;;;;;;;120.50;62.33;;;;;;;3.83;65.60;100586.56;4861588;28;101413;-81
2021/11/14 04:35:21;;;;;;;102.87;57.70;;;;;;;3.86;65.24;100584.81;4853948;28;96664;-81
2021/11/14 04:38:43;;;;;;;101.87;56.50;;;;;;;3.89;65.38;100583.09;4870631;28;96815;-81
2021/11/14 04:41:36;;;;;;;106.93;60.47;;;;;;;3.83;65.74;100583.97;4869541;28;101351;-81
2021/11/14 04:44:01;;;;;;;101.70;56.53;;;;;;;3.79;66.27;100593.50;4888718;28;101422;-81
2021/11/14 04:46:27;;;;;;;108.57;60.90;;;;;;;3.82;65.62;100593.50;4868273;28;96767;-81
2021/11/14 04:48:52;;;;;;;100.77;58.43;;;;;;;3.78;65.51;100596.09;4859577;28;96915;-81
2021/11/14 04:51:38;;;;;;;106.37;59.53;;;;;;;3.84;65.19;100593.50;4854896;28;96661;-81
2021/11/14 04:54:04;;;;;;;107.63;61.07;;;;;;;3.89;64.61;100591.75;4859978;28;101821;-81
2021/11/14 04:56:29;;;;;;;101.87;58.00;;;;;;;3.81;64.93;100594.38;4877220;28;96686;-81
2021/11/14 05:02:58;;;;;;;103.57;58.17;;;;;;;3.81;64.90;100594.38;4888965;28;96998;-81
2021/11/14 05:05:47;;;;;;;105.00;57.57;;;;;;;3.80;65.02;100594.38;4903978;28;97092;-81
2021/11/14 05:08:13;;;;;;;104.47;57.73;;;;;;;3.71;65.30;100596.97;4883723;28;96646;-81
2021/11/14 05:10:40;;;;;;;106.63;59.43;;;;;;;3.70;65.31;100593.53;4877618;28;96639;-81
2021/11/14 05:16:59;;;;;;;106.67;58.90;;;;;;;3.69;65.09;100615.16;4888860;28;97017;-81
2021/11/14 05:24:06;;;;;;;99.00;54.17;;;;;;;3.74;64.71;100629.00;4898449;28;96521;-81
2021/11/14 05:26:58;;;;;;;101.30;56.23;;;;;;;3.77;64.69;100630.72;4875343;28;98204;-81
2021/11/14 05:29:24;;;;;;;104.30;57.75;;;;;;;3.69;64.89;100629.88;4911870;28;100542;-81
2021/11/14 05:31:50;;;;;;;100.43;55.37;;;;;;;3.63;65.48;100635.91;4895117;28;95772;-81
2021/11/14 05:38:45;;;;;;;106.30;56.30;;;;;;;3.60;65.52;100646.31;4890104;28;96469;-81
2021/11/14 05:45:37;;;;;;;111.60;58.57;;;;;;;3.62;65.49;100660.16;4908851;28;96698;-82
2021/11/14 05:48:10;;;;;;;117.23;61.00;;;;;;;3.67;65.63;100654.97;4871785;28;96731;-81
2021/11/14 05:50:36;;;;;;;112.17;60.00;;;;;;;3.65;65.64;100654.13;4842632;29;98577;-81
2021/11/14 05:53:02;;;;;;;111.13;61.27;;;;;;;3.59;65.61;100654.97;4839371;28;101363;-81
2021/11/14 05:55:27;;;;;;;111.33;59.63;;;;;;;3.59;65.44;100665.34;4844297;28;96882;-83
2021/11/14 05:58:02;;;;;;;109.03;58.30;;;;;;;3.59;65.58;100670.56;4874040;28;96824;-81
2021/11/14 06:04:30;;;;;;;107.97;60.87;;;;;;;3.56;66.16;100687.00;4893868;28;96362;-81
2021/11/14 06:06:55;;;;;;;99.97;55.10;;;;;;;3.62;65.88;100694.78;4874146;28;96632;-81
2021/11/14 06:17:14;;;;;;;98.00;57.90;;;;;;;3.63;64.79;100717.25;4870481;28;97022;-82
2021/11/14 06:19:48;;;;;;;100.83;55.27;;;;;;;3.59;64.40;100719.88;4856903;28;96584;-81
2021/11/14 06:22:15;;;;;;;94.33;56.50;;;;;;;3.38;64.65;100719.00;4866139;28;96784;-82
2021/11/14 06:24:41;;;;;;;97.10;55.40;;;;;;;3.30;64.88;100722.44;4844655;28;100764;-81
2021/11/14 06:27:06;;;;;;;92.33;55.40;;;;;;;3.24;64.74;100725.88;4853714;28;97442;-81
2021/11/14 06:29:59;;;;;;;87.80;54.10;;;;;;;3.26;64.43;100739.72;4852774;28;96614;-81
2021/11/14 06:32:24;;;;;;;;;;;;;;;3.21;63.89;100751.81;4868790;28;96588;-81
2021/11/14 06:34:50;;;;;;;92.50;50.27;;;;;;;3.14;63.81;100744.84;4845964;29;97638;-81
2021/11/14 06:45:16;;;;;;;95.80;53.37;;;;;;;3.05;64.71;100748.28;4865085;28;96580;-82
2021/11/14 06:47:46;;;;;;;99.63;55.43;;;;;;;3.00;64.82;100754.34;4834557;29;100392;-81
2021/11/14 06:51:03;;;;;;;94.97;55.10;;;;;;;3.04;64.99;100759.53;4826481;29;100388;-81
2021/11/14 06:53:28;;;;;;;120.13;61.57;;;;;;;3.17;64.75;100763.91;4840327;28;96538;-81
2021/11/14 06:55:54;;;;;;;96.13;55.43;;;;;;;3.19;64.84;100769.09;4852411;28;96817;-81
2021/11/14 06:58:43;;;;;;;148.93;70.23;;;;;;;2.98;65.28;100763.84;4850944;28;98493;-81
2021/11/14 07:01:10;;;;;;;147.77;76.73;;;;;;;3.03;65.29;100773.38;4851236;28;100797;-81
2021/11/14 07:03:36;;;;;;;136.20;70.70;;;;;;;3.14;65.13;100770.81;4839873;28;96773;-81
2021/11/14 07:06:02;;;;;;;155.07;83.93;;;;;;;3.39;64.72;100770.03;4850226;29;96645;-81
2021/11/14 07:08:27;;;;;;;125.07;74.27;;;;;;;3.51;64.40;100779.56;4834756;28;99894;-82
2021/11/14 07:10:53;;;;;;;107.83;59.83;;;;;;;3.50;64.15;100780.44;4867538;28;97905;-81
2021/11/14 07:13:21;;;;;;;90.27;53.77;;;;;;;3.51;64.94;100786.50;4867333;28;96679;-81
2021/11/14 07:16:14;;;;;;;89.33;51.33;;;;;;;3.48;64.99;100789.94;4866639;28;96860;-81
2021/11/14 07:18:39;;;;;;;96.93;54.30;;;;;;;3.53;65.05;100792.56;4866974;28;101365;-81
2021/11/14 07:21:05;;;;;;;101.77;56.27;;;;;;;3.52;65.63;100796.00;4837017;28;101445;-81
2021/11/14 07:27:24;;;;;;;97.33;55.87;;;;;;;3.65;65.88;100794.31;4882214;28;96648;-81
2021/11/14 07:29:58;;;;;;;101.97;55.90;;;;;;;3.71;65.69;100791.72;4855064;28;98638;-81
2021/11/14 07:32:24;;;;;;;105.07;55.70;;;;;;;3.75;66.19;100796.03;4831922;28;101221;-81
2021/11/14 07:34:49;;;;;;;109.67;57.00;;;;;;;3.75;66.01;100793.44;4866707;28;96895;-81
2021/11/14 07:37:35;;;;;;;102.93;57.30;;;;;;;3.80;66.27;100799.53;4859088;28;96933;-81
2021/11/14 07:40:24;;;;;;;134.67;63.73;;;;;;;3.91;65.73;100800.41;4834894;28;101411;-81
2021/11/14 07:42:53;;;;;;;112.00;59.80;;;;;;;3.95;65.79;100802.13;4884555;28;97479;-81
2021/11/14 07:45:21;;;;;;;105.17;59.90;;;;;;;3.99;65.96;100806.47;4867930;28;96856;-81
2021/11/14 07:47:59;;;;;;;101.27;54.97;;;;;;;4.08;65.84;100803.03;4857816;28;97612;-81
2021/11/14 07:50:27;;;;;;;107.53;58.83;;;;;;;3.99;66.02;100803.03;4837695;28;101271;-81
2021/11/14 07:52:55;;;;;;;108.47;64.40;;;;;;;3.97;66.46;100810.78;4841525;28;100440;-82
2021/11/14 07:55:21;;;;;;;117.60;60.23;;;;;;;4.03;66.25;100807.34;4853975;28;97096;-81
2021/11/14 07:57:47;;;;;;;113.23;61.13;;;;;;;4.12;65.76;100796.09;4859379;28;96736;-81
2021/11/14 08:00:25;;;;;;;107.37;56.33;;;;;;;4.24;65.80;100802.13;4870595;28;97655;-83
2021/11/14 08:03:16;;;;;;;106.87;56.13;;;;;;;4.41;65.38;100804.72;4870806;28;96727;-81
2021/11/14 08:05:42;;;;;;;102.37;56.10;;;;;;;4.54;65.44;100808.19;4866027;28;96563;-82
2021/11/14 08:08:08;;;;;;;103.37;56.63;;;;;;;4.65;65.09;100809.00;4854292;28;96661;-81
2021/11/14 08:17:25;;;;;;;96.47;53.53;;;;;;;6.02;62.28;100818.81;4868919;28;96697;-81
2021/11/14 08:19:51;;;;;;;99.90;55.13;;;;;;;6.49;61.63;100818.44;4839277;28;97505;-81
2021/11/14 08:23:00;;;;;;;96.93;55.55;;;;;;;7.13;59.83;100832.56;4838072;29;99343;-81
2021/11/14 08:25:27;;;;;;;93.82;52.65;;;;;;;7.51;59.45;100831.22;4873494;28;98104;-81
2021/11/14 08:27:53;;;;;;;95.13;53.60;;;;;;;7.93;58.06;100829.72;4855443;28;96621;-81
2021/11/14 08:30:18;;;;;;;92.13;52.00;;;;;;;8.23;57.21;100827.53;4838913;29;96797;-81
2021/11/14 08:32:45;;;;;;;88.90;52.28;;;;;;;8.64;56.43;100833.84;4854001;29;99812;-81
2021/11/14 08:35:11;;;;;;;86.15;51.58;;;;;;;9.02;56.17;100835.75;4855800;29;99468;-81
2021/11/14 08:37:38;;;;;;;101.07;55.92;;;;;;;9.29;55.18;100833.47;4844659;28;96719;-81
2021/11/14 08:40:14;;;;;;;90.05;55.72;;;;;;;9.65;54.26;100846.66;4857262;28;96611;-81
2021/11/14 08:43:15;;;;;;;84.90;52.90;;;;;;;9.98;54.07;100837.19;4861118;28;97841;-81
2021/11/14 08:45:42;;;;;;;87.22;55.75;;;;;;;10.40;53.30;100847.56;4840617;29;101871;-80
2021/11/14 08:48:08;;;;;;;94.07;55.42;;;;;;;10.51;52.71;100844.69;4854563;29;96654;-81
2021/11/14 08:50:53;;;;;;;87.78;56.70;;;;;;;10.63;52.17;100849.63;4869120;28;96868;-81
2021/11/14 08:53:19;;;;;;;96.03;59.05;;;;;;;10.87;51.62;100856.84;4867284;28;100416;-81
2021/11/14 08:55:45;;;;;;;92.65;58.22;;;;;;;11.01;51.72;100855.63;4878475;28;101493;-80
2021/11/14 08:58:11;;;;;;;86.68;57.67;;;;;;;11.29;51.08;100858.34;4891063;28;96859;-81
2021/11/14 09:00:53;;;;;;;92.78;59.10;;;;;;;11.46;50.46;100866.59;4896978;28;96852;-81
2021/11/14 09:03:20;;;;;;;90.15;58.20;;;;;;;11.64;50.14;100867.84;4885935;28;102160;-80
2021/11/14 09:05:46;;;;;;;87.32;56.92;;;;;;;11.77;49.58;100879.69;4879966;28;97982;-79
2021/11/14 09:08:12;;;;;;;90.10;55.50;;;;;;;11.91;49.71;100881.09;4887634;28;96631;-81
2021/11/14 09:10:40;;;;;;;90.65;57.10;;;;;;;12.29;48.59;100879.03;4859174;28;96625;-80
2021/11/14 09:13:08;;;;;;;88.03;60.33;;;;;;;12.49;48.07;100876.59;4857680;28;101452;-78
2021/11/14 09:15:34;;;;;;;93.85;59.72;;;;;;;12.76;47.88;100873.94;4874655;28;96596;-79
2021/11/14 09:18:00;;;;;;;88.22;58.72;;;;;;;12.68;48.03;100869.81;4873700;28;96696;-78
2021/11/14 09:21:25;;;;;;;89.45;58.65;;;;;;;12.70;48.14;100877.66;4860638;28;96902;-79
2021/11/14 09:24:27;;;;;;;87.47;56.75;;;;;;;13.21;46.82;100879.38;4889596;28;100827;-79
2021/11/14 09:26:53;;;;;;;92.53;57.15;;;;;;;13.56;46.31;100885.19;4890581;28;101237;-79
2021/11/14 09:29:19;;;;;;;88.95;57.45;;;;;;;13.49;46.53;100881.88;4875925;28;96630;-79
2021/11/14 09:32:40;;;;;;;87.28;58.17;;;;;;;13.30;46.38;100889.63;4883878;28;96546;-79
2021/11/14 09:39:13;;;;;;;85.30;54.78;;;;;;;13.67;46.04;100888.28;4906405;28;96834;-79
2021/11/14 09:41:50;;;;;;;81.85;54.22;;;;;;;13.76;46.22;100887.06;4857916;28;96672;-79
2021/11/14 09:44:18;;;;;;;84.20;55.78;;;;;;;13.81;45.81;100898.28;4876554;28;96906;-79
2021/11/14 09:50:01;;;;;;;72.97;51.20;;;;;;;13.95;45.27;100892.47;5493342;23;99209;-82
2021/11/14 09:52:27;;;;;;;73.00;51.70;;;;;;;13.98;45.45;100892.34;4895275;28;96770;-83
2021/11/14 09:54:53;;;;;;;75.57;52.17;;;;;;;13.75;45.66;100890.59;4911141;28;96481;-83
2021/11/14 09:57:19;;;;;;;72.72;50.55;;;;;;;13.87;45.39;100891.91;4878943;28;99402;-83
2021/11/14 09:59:45;;;;;;;75.35;52.65;;;;;;;13.91;45.03;100894.38;4898652;28;99590;-81
2021/11/14 10:02:12;;;;;;;74.90;52.92;;;;;;;13.70;45.02;100889.91;4894778;28;96749;-82
2021/11/14 10:04:38;;;;;;;77.47;52.17;;;;;;;13.65;45.75;100892.75;4897818;28;96358;-81
2021/11/14 10:07:12;;;;;;;79.35;52.35;;;;;;;13.48;45.53;100892.50;4877773;28;99896;-79
2021/11/14 10:40:07;;;;;;;85.63;54.58;;;;;;;11.85;49.85;100920.72;5954603;23;99956;-83
2021/11/14 10:42:33;;;;;;;90.55;57.97;;;;;;;11.62;50.49;100914.34;4855352;28;100817;-84
2021/11/14 10:45:01;;;;;;;87.30;57.67;;;;;;;11.54;50.99;100925.06;4842733;28;99073;-86
2021/11/14 10:47:28;;;;;;;83.20;55.13;;;;;;;11.48;50.93;100913.88;4877996;28;98265;-85
2021/11/14 10:50:03;;;;;;;83.57;53.78;;;;;;;11.47;51.08;100922.69;4859416;28;97530;-85
2021/11/14 10:52:33;;;;;;;75.90;52.63;;;;;;;11.50;51.43;100919.97;4852686;28;102167;-86
2021/11/14 10:55:04;;;;;;;82.53;55.25;;;;;;;11.51;51.07;100925.16;4834743;28;101758;-85
2021/11/14 10:57:32;;;;;;;81.90;56.80;;;;;;;11.32;51.43;100922.19;4838642;28;96871;-84
2021/11/14 10:59:58;;;;;;;83.80;55.92;;;;;;;11.27;52.03;100916.19;4840536;28;97096;-82
2021/11/14 11:02:25;;;;;;;84.40;55.95;;;;;;;11.12;51.97;100916.63;4870399;28;100716;-80
2021/11/14 11:04:51;;;;;;;80.90;53.30;;;;;;;11.14;52.26;100927.06;4873677;28;101452;-82
2021/11/14 11:07:17;;;;;;;89.10;54.63;;;;;;;11.01;51.97;100918.66;4868897;28;98096;-83
2021/11/14 11:09:43;;;;;;;80.70;52.33;;;;;;;10.88;52.17;100913.75;4860969;29;96743;-84
2021/11/14 11:12:24;;;;;;;77.13;51.95;;;;;;;10.80;52.22;100917.47;4850658;28;99632;-76
2021/11/14 11:14:59;;;;;;;83.17;55.27;;;;;;;10.54;52.85;100923.38;4869213;28;97414;-83
2021/11/14 11:21:35;;;;;;;80.15;51.92;;;;;;;10.34;55.68;100923.84;4882998;28;97168;-79
2021/11/14 11:24:32;;;;;;;82.35;53.50;;;;;;;10.38;54.32;100914.97;4854609;28;96819;-79
2021/11/14 11:31:01;;;;;;;82.13;51.20;;;;;;;10.32;54.46;100915.97;4873299;28;96799;-78
2021/11/14 11:33:28;;;;;;;86.43;52.53;;;;;;;10.28;54.26;100918.72;4868513;28;97233;-79
2021/11/14 11:35:55;;;;;;;78.97;52.70;;;;;;;10.21;54.74;100917.97;4865179;28;96933;-78
2021/11/14 11:38:21;;;;;;;81.90;51.72;;;;;;;10.12;55.02;100923.41;4887040;28;96617;-78
2021/11/14 11:40:52;;;;;;;80.32;53.13;;;;;;;9.98;55.07;100932.47;4851404;28;96740;-79
2021/11/14 11:43:18;;;;;;;68.43;47.72;;;;;;;9.91;55.30;100925.63;4855729;28;96836;-78
2021/11/14 11:45:46;;;;;;;75.95;49.25;;;;;;;9.83;55.36;100931.91;4872292;28;100197;-79
2021/11/14 11:48:37;;;;;;;76.20;50.53;;;;;;;9.46;56.52;100938.78;4856947;28;100760;-80
2021/11/14 11:51:31;;;;;;;71.88;48.88;;;;;;;9.48;55.91;100938.75;4912582;28;96542;-80
2021/11/14 11:54:33;;;;;;;74.22;48.42;;;;;;;9.47;56.66;100937.88;4872478;28;96781;-81
2021/11/14 11:57:14;;;;;;;67.65;44.20;;;;;;;9.44;56.68;100945.81;4904656;28;100963;-80
2021/11/14 11:59:42;;;;;;;68.88;46.13;;;;;;;9.42;56.64;100942.34;4912539;28;96626;-80
2021/11/14 12:09:11;;;;;;;69.97;47.35;;;;;;;9.39;57.48;100933.69;4833892;28;99759;-80
2021/11/14 12:12:16;;;;;;;71.50;46.25;;;;;;;9.49;57.37;100948.34;4802181;29;100155;-80
2021/11/14 12:14:42;;;;;;;70.00;46.65;;;;;;;9.44;57.52;100955.44;4829611;29;96730;-81
2021/11/14 12:17:09;;;;;;;70.60;46.55;;;;;;;9.36;57.66;100950.31;4829850;29;97008;-80
2021/11/14 12:19:37;;;;;;;80.35;50.47;;;;;;;9.37;57.49;100956.47;4818478;29;100395;-80
2021/11/14 12:22:53;;;;;;;75.65;47.97;;;;;;;9.24;57.19;100958.44;4809920;29;98163;-80
2021/11/14 12:25:41;;;;;;;70.13;46.33;;;;;;;9.21;57.89;100956.72;4812645;29;96793;-80
2021/11/14 12:28:11;;;;;;;81.50;52.83;;;;;;;9.13;58.10;100955.13;4829729;29;96839;-80
2021/11/14 12:37:59;;;;;;;76.72;49.45;;;;;;;9.10;58.87;100961.28;4827315;29;96750;-81
2021/11/14 12:41:16;;;;;;;72.78;49.08;;;;;;;9.02;59.12;100960.59;4830126;29;96827;-81
2021/11/14 12:43:48;;;;;;;69.32;45.85;;;;;;;8.98;59.14;100971.97;4833659;29;100387;-78
2021/11/14 12:46:16;;;;;;;72.07;48.65;;;;;;;9.02;58.78;100966.69;4837284;29;101499;-78
2021/11/14 12:48:44;;;;;;;79.32;51.00;;;;;;;9.06;59.20;100984.06;4842131;29;96814;-78
2021/11/14 12:51:13;;;;;;;71.20;44.42;;;;;;;9.03;58.89;100981.50;4828253;29;97027;-78
2021/11/14 12:53:52;;;;;;;70.50;45.88;;;;;;;8.95;58.93;100987.75;4858820;29;97757;-78
2021/11/14 12:57:05;;;;;;;70.65;46.50;;;;;;;8.97;59.21;100978.13;4827085;29;100630;-79
2021/11/14 12:59:31;;;;;;;71.88;43.92;;;;;;;8.86;58.92;100985.28;4862296;29;96559;-78
2021/11/14 13:02:00;;;;;;;64.85;45.30;;;;;;;8.81;59.62;100994.09;4833725;29;97561;-78
2021/11/14 13:04:46;;;;;;;76.60;45.55;;;;;;;8.88;58.96;100994.84;4832997;29;101847;-78
2021/11/14 13:07:29;;;;;;;69.70;46.63;;;;;;;8.84;59.81;100998.38;4859957;28;97799;-78
2021/11/14 13:09:56;;;;;;;71.25;46.00;;;;;;;8.80;59.24;101007.19;4847520;28;96925;-78
2021/11/14 13:12:23;;;;;;;65.80;45.40;;;;;;;8.75;59.06;101011.63;4842616;29;98114;-78
2021/11/14 13:14:52;;;;;;;69.22;44.72;;;;;;;8.70;59.81;101011.72;4847583;29;102338;-77
2021/11/14 13:17:18;;;;;;;73.63;46.00;;;;;;;8.68;59.77;101007.38;4837174;29;101105;-78
2021/11/14 13:19:45;;;;;;;74.32;45.88;;;;;;;8.78;59.57;101015.06;4853491;29;96948;-78
2021/11/14 13:22:12;;;;;;;71.55;45.70;;;;;;;8.76;59.43;101016.00;4850025;29;97329;-77
2021/11/14 13:24:37;;;;;;;67.25;45.03;;;;;;;8.63;60.11;101030.13;4830438;29;97687;-78
2021/11/14 13:27:08;;;;;;;70.90;45.90;;;;;;;8.60;59.87;101031.03;4838949;29;97570;-77
2021/11/14 13:29:40;;;;;;;65.47;43.83;;;;;;;8.65;59.93;101024.00;4841105;29;97792;-78
2021/11/14 13:32:11;;;;;;;77.40;47.72;;;;;;;8.65;59.88;101031.84;4846336;29;97058;-78
2021/11/14 13:34:39;;;;;;;74.07;47.20;;;;;;;8.54;59.99;101033.75;4854233;29;101899;-77
2021/11/14 13:37:17;;;;;;;68.25;45.63;;;;;;;8.53;59.73;101032.91;4858704;29;101198;-78
2021/11/14 13:39:44;;;;;;;76.88;48.55;;;;;;;8.54;60.21;101037.22;4836756;29;97145;-78
2021/11/14 13:42:13;;;;;;;84.68;51.95;;;;;;;8.52;60.11;101046.88;4862876;28;96941;-79
2021/11/14 13:44:42;;;;;;;85.55;54.78;;;;;;;8.49;60.78;101044.28;4854666;28;100164;-77
2021/11/14 13:47:13;;;;;;;93.07;55.03;;;;;;;8.45;61.09;101039.97;4866073;28;97637;-78
2021/11/14 13:49:40;;;;;;;81.40;53.17;;;;;;;8.36;61.20;101040.09;4856148;28;96726;-78
2021/11/14 13:52:11;;;;;;;74.97;47.55;;;;;;;8.44;60.69;101042.63;4852036;28;96840;-78
2021/11/14 13:54:53;;;;;;;75.55;47.95;;;;;;;8.40;61.17;101044.41;4853826;28;100183;-79
2021/11/14 13:57:21;;;;;;;74.82;46.88;;;;;;;8.39;60.72;101038.31;4880561;28;98312;-77
2021/11/14 13:59:47;;;;;;;72.90;44.88;;;;;;;8.28;61.56;101048.03;4848693;28;96762;-77
2021/11/14 14:02:13;;;;;;;75.95;45.80;;;;;;;8.20;61.50;101039.41;4876338;28;97485;-78
2021/11/14 14:04:59;;;;;;;83.88;49.83;;;;;;;8.24;61.47;101051.56;4852252;28;101316;-78
2021/11/14 14:07:27;;;;;;;82.15;51.38;;;;;;;8.33;61.26;101051.44;4871117;28;101144;-77
2021/11/14 14:09:56;;;;;;;77.22;46.33;;;;;;;8.30;61.08;101055.88;4870181;28;96678;-77
2021/11/14 14:12:21;;;;;;;74.93;47.10;;;;;;;8.15;61.80;101059.53;4855112;29;96987;-79
2021/11/14 14:14:48;;;;;;;82.75;49.55;;;;;;;8.07;61.84;101067.47;4853514;29;102063;-77
2021/11/14 14:17:14;;;;;;;76.50;49.00;;;;;;;8.01;61.93;101067.53;4864213;29;101810;-77
2021/11/14 14:19:42;;;;;;;78.22;47.78;;;;;;;8.04;61.90;101071.88;4868530;28;96712;-79
2021/11/14 14:22:08;;;;;;;81.15;48.72;;;;;;;7.96;62.66;101068.47;4847079;28;96939;-80
2021/11/14 14:24:49;;;;;;;88.47;51.47;;;;;;;7.91;62.70;101076.34;4885544;28;101113;-78
2021/11/14 14:27:24;;;;;;;79.90;48.80;;;;;;;7.96;62.50;101084.16;4844121;28;100190;-78
2021/11/14 14:30:08;;;;;;;78.97;48.20;;;;;;;7.92;62.75;101088.56;4863570;29;97263;-79
2021/11/14 14:32:47;;;;;;;82.63;50.45;;;;;;;7.91;62.91;101084.19;4858915;28;96745;-79
2021/11/14 14:35:44;;;;;;;81.30;48.97;;;;;;;7.88;63.36;101085.13;4881882;28;101228;-79
2021/11/14 14:38:22;;;;;;;72.93;46.80;;;;;;;7.87;63.38;101088.59;4880271;28;98115;-80
2021/11/14 14:40:51;;;;;;;84.90;48.78;;;;;;;7.88;63.34;101082.50;4844192;28;96756;-79
2021/11/14 14:43:20;;;;;;;76.45;48.13;;;;;;;7.86;63.62;101092.09;4865169;28;96962;-79
2021/11/14 14:45:53;;;;;;;84.97;49.03;;;;;;;7.90;64.06;101083.34;4864124;28;102172;-79
2021/11/14 14:48:23;;;;;;;85.00;49.85;;;;;;;7.87;63.64;101091.22;4880887;28;97967;-80
2021/11/14 14:50:58;;;;;;;85.88;49.03;;;;;;;7.93;64.19;101098.13;4848669;28;96645;-79
2021/11/14 14:53:31;;;;;;;81.88;49.70;;;;;;;7.88;64.30;101103.44;4868132;28;97139;-79